sensor_id;sensor_type;location;lat;lon;timestamp;pressure;altitude;pressure_sealevel;temperature;humidity
71774;BME280;59607;52.130;5.430;2023-04-01T00:01:50;99141.50;;;10.16;100.00
71774;BME280;59607;52.130;5.430;2023-04-01T00:04:17;99141.50;;;10.16;100.00
71774;BME280;59607;52.130;5.430;2023-04-01T00:06:43;99142.50;;;10.15;100.00
71774;BME280;59607;52.130;5.430;2023-04-01T00:09:14;99144.94;;;10.17;100.00
71774;BME280;59607;52.130;5.430;2023-04-01T00:11:41;99143.91;;;10.18;100.00
71774;BME280;59607;52.130;5.430;2023-04-01T00:14:07;99140.47;;;10.17;100.00
71774;BME280;59607;52.130;5.430;2023-04-01T00:16:37;99149.16;;;10.18;100.00
71774;BME280;59607;52.130;5.430;2023-04-01T00:19:07;99150.94;;;10.17;100.00
71774;BME280;59607;52.130;5.430;2023-04-01T00:21:36;99152.78;;;10.17;100.00
71774;BME280;59607;52.130;5.430;2023-04-01T00:24:08;99153.19;;;10.14;100.00
71774;BME280;59607;52.130;5.430;2023-04-01T00:26:34;99161.06;;;10.14;100.00
71774;BME280;59607;52.130;5.430;2023-04-01T00:29:04;99150.56;;;10.14;100.00
71774;BME280;59607;52.130;5.430;2023-04-01T00:31:35;99158.22;;;10.15;100.00
71774;BME280;59607;52.130;5.430;2023-04-01T00:34:08;99156.59;;;10.14;100.00
71774;BME280;59607;52.130;5.430;2023-04-01T00:36:34;99155.59;;;10.15;100.00
71774;BME280;59607;52.130;5.430;2023-04-01T00:39:00;99155.59;;;10.15;100.00
71774;BME280;59607;52.130;5.430;2023-04-01T00:41:28;99155.41;;;10.17;100.00
71774;BME280;59607;52.130;5.430;2023-04-01T00:44:15;99154.78;;;10.15;100.00
71774;BME280;59607;52.130;5.430;2023-04-01T00:46:44;99158.22;;;10.15;100.00
71774;BME280;59607;52.130;5.430;2023-04-01T00:49:15;99158.22;;;10.15;100.00
71774;BME280;59607;52.130;5.430;2023-04-01T00:51:50;99160.66;;;10.17;100.00
71774;BME280;59607;52.130;5.430;2023-04-01T00:54:21;99158.81;;;10.17;100.00
71774;BME280;59607;52.130;5.430;2023-04-01T00:56:55;99163.47;;;10.15;100.00
71774;BME280;59607;52.130;5.430;2023-04-01T00:59:32;99157.81;;;10.11;100.00
71774;BME280;59607;52.130;5.430;2023-04-01T01:02:11;99164.25;;;10.09;100.00
71774;BME280;59607;52.130;5.430;2023-04-01T01:04:45;99172.09;;;10.09;100.00
71774;BME280;59607;52.130;5.430;2023-04-01T01:18:19;99180.78;;;10.03;100.00
71774;BME280;59607;52.130;5.430;2023-04-01T01:24:27;99189.22;;;9.98;100.00
71774;BME280;59607;52.130;5.430;2023-04-01T01:27:06;99179.97;;;9.95;100.00
71774;BME280;59607;52.130;5.430;2023-04-01T01:38:09;99183.19;;;9.91;100.00
71774;BME280;59607;52.130;5.430;2023-04-01T01:40:42;99190.22;;;9.90;100.00
71774;BME280;59607;52.130;5.430;2023-04-01T01:43:16;99178.56;;;9.86;100.00
71774;BME280;59607;52.130;5.430;2023-04-01T01:45:46;99191.22;;;9.82;100.00
71774;BME280;59607;52.130;5.430;2023-04-01T01:48:16;99187.59;;;9.83;100.00
71774;BME280;59607;52.130;5.430;2023-04-01T01:50:44;99184.97;;;9.77;100.00
71774;BME280;59607;52.130;5.430;2023-04-01T01:53:17;99189.59;;;9.74;100.00
71774;BME280;59607;52.130;5.430;2023-04-01T01:55:45;99190.59;;;9.73;100.00
71774;BME280;59607;52.130;5.430;2023-04-01T01:58:29;99199.66;;;9.71;100.00
71774;BME280;59607;52.130;5.430;2023-04-01T02:01:05;99194.63;;;9.69;100.00
71774;BME280;59607;52.130;5.430;2023-04-01T02:03:35;99193.03;;;9.68;100.00
71774;BME280;59607;52.130;5.430;2023-04-01T02:06:08;99196.44;;;9.69;100.00
71774;BME280;59607;52.130;5.430;2023-04-01T02:09:06;99194.81;;;9.68;100.00
71774;BME280;59607;52.130;5.430;2023-04-01T02:14:15;99201.44;;;9.63;100.00
71774;BME280;59607;52.130;5.430;2023-04-01T02:16:47;99207.06;;;9.60;100.00
71774;BME280;59607;52.130;5.430;2023-04-01T02:19:16;99201.25;;;9.58;100.00
71774;BME280;59607;52.130;5.430;2023-04-01T02:21:57;99212.69;;;9.57;100.00
71774;BME280;59607;52.130;5.430;2023-04-01T02:24:30;99205.03;;;9.56;100.00
71774;BME280;59607;52.130;5.430;2023-04-01T02:26:59;99210.28;;;9.56;100.00
71774;BME280;59607;52.130;5.430;2023-04-01T02:29:29;99210.28;;;9.56;100.00
71774;BME280;59607;52.130;5.430;2023-04-01T02:31:58;99207.88;;;9.54;100.00
71774;BME280;59607;52.130;5.430;2023-04-01T02:34:26;99213.09;;;9.54;100.00
71774;BME280;59607;52.130;5.430;2023-04-01T02:37:03;99212.69;;;9.50;100.00
71774;BME280;59607;52.130;5.430;2023-04-01T02:39:33;99217.13;;;9.50;100.00
71774;BME280;59607;52.130;5.430;2023-04-01T02:42:05;99210.88;;;9.51;100.00
71774;BME280;59607;52.130;5.430;2023-04-01T02:44:32;99213.69;;;9.49;100.00
71774;BME280;59607;52.130;5.430;2023-04-01T02:47:07;99213.69;;;9.49;100.00
71774;BME280;59607;52.130;5.430;2023-04-01T02:49:34;99217.31;;;9.48;100.00
71774;BME280;59607;52.130;5.430;2023-04-01T02:52:00;99220.13;;;9.47;100.00
71774;BME280;59607;52.130;5.430;2023-04-01T02:54:32;99215.09;;;9.45;100.00
71774;BME280;59607;52.130;5.430;2023-04-01T02:56:58;99220.72;;;9.42;100.00
71774;BME280;59607;52.130;5.430;2023-04-01T02:59:26;99222.13;;;9.45;100.00
71774;BME280;59607;52.130;5.430;2023-04-01T03:01:55;99222.13;;;9.45;100.00
71774;BME280;59607;52.130;5.430;2023-04-01T03:04:21;99222.13;;;9.45;100.00
71774;BME280;59607;52.130;5.430;2023-04-01T03:06:48;99225.75;;;9.44;100.00
71774;BME280;59607;52.130;5.430;2023-04-01T03:09:19;99224.56;;;9.46;100.00
71774;BME280;59607;52.130;5.430;2023-04-01T03:11:45;99228.19;;;9.45;100.00
71774;BME280;59607;52.130;5.430;2023-04-01T03:14:12;99229.59;;;9.48;100.00
71774;BME280;59607;52.130;5.430;2023-04-01T03:16:43;99240.06;;;9.48;100.00
71774;BME280;59607;52.130;5.430;2023-04-01T03:19:09;99233.81;;;9.49;100.00
71774;BME280;59607;52.130;5.430;2023-04-01T03:21:42;99236.44;;;9.49;100.00
71774;BME280;59607;52.130;5.430;2023-04-01T03:24:12;99250.53;;;9.48;100.00
71774;BME280;59607;52.130;5.430;2023-04-01T03:26:39;99241.84;;;9.47;100.00
71774;BME280;59607;52.130;5.430;2023-04-01T03:29:25;99250.31;;;9.49;100.00
71774;BME280;59607;52.130;5.430;2023-04-01T03:31:52;99246.53;;;9.52;100.00
71774;BME280;59607;52.130;5.430;2023-04-01T03:34:18;99252.94;;;9.49;100.00
71774;BME280;59607;52.130;5.430;2023-04-01T03:36:44;99257.56;;;9.47;100.00
71774;BME280;59607;52.130;5.430;2023-04-01T03:39:17;99267.84;;;9.49;100.00
71774;BME280;59607;52.130;5.430;2023-04-01T03:41:45;99259.78;;;9.50;100.00
71774;BME280;59607;52.130;5.430;2023-04-01T03:44:14;99266.03;;;9.49;100.00
71774;BME280;59607;52.130;5.430;2023-04-01T03:46:41;99259.97;;;9.49;100.00
71774;BME280;59607;52.130;5.430;2023-04-01T03:49:11;99265.84;;;9.51;100.00
71774;BME280;59607;52.130;5.430;2023-04-01T03:51:44;99270.09;;;9.52;100.00
71774;BME280;59607;52.130;5.430;2023-04-01T03:54:10;99271.69;;;9.53;100.00
71774;BME280;59607;52.130;5.430;2023-04-01T03:56:37;99264.03;;;9.52;100.00
71774;BME280;59607;52.130;5.430;2023-04-01T03:59:09;99277.94;;;9.52;100.00
71774;BME280;59607;52.130;5.430;2023-04-01T04:01:36;99280.94;;;9.56;100.00
71774;BME280;59607;52.130;5.430;2023-04-01T04:04:05;99282.97;;;9.54;100.00
71774;BME280;59607;52.130;5.430;2023-04-01T04:06:33;99284.78;;;9.53;100.00
71774;BME280;59607;52.130;5.430;2023-04-01T04:08:59;99283.56;;;9.56;100.00
71774;BME280;59607;52.130;5.430;2023-04-01T04:11:26;99279.78;;;9.58;100.00
71774;BME280;59607;52.130;5.430;2023-04-01T04:13:58;99291.22;;;9.57;100.00
71774;BME280;59607;52.130;5.430;2023-04-01T04:16:26;99295.09;;;9.61;100.00
71774;BME280;59607;52.130;5.430;2023-04-01T04:19:06;99302.75;;;9.63;100.00
71774;BME280;59607;52.130;5.430;2023-04-01T04:21:41;99299.13;;;9.64;100.00
71774;BME280;59607;52.130;5.430;2023-04-01T04:24:08;99303.97;;;9.67;100.00
71774;BME280;59607;52.130;5.430;2023-04-01T04:26:38;99305.59;;;9.68;100.00
71774;BME280;59607;52.130;5.430;2023-04-01T04:29:04;99317.66;;;9.69;100.00
71774;BME280;59607;52.130;5.430;2023-04-01T04:31:31;99316.84;;;9.69;100.00
71774;BME280;59607;52.130;5.430;2023-04-01T04:33:59;99317.66;;;9.69;100.00
71774;BME280;59607;52.130;5.430;2023-04-01T04:36:30;99325.94;;;9.73;100.00
71774;BME280;59607;52.130;5.430;2023-04-01T04:38:57;99327.56;;;9.74;100.00
71774;BME280;59607;52.130;5.430;2023-04-01T04:41:24;99323.13;;;9.74;100.00
71774;BME280;59607;52.130;5.430;2023-04-01T04:43:55;99335.03;;;9.77;100.00
71774;BME280;59607;52.130;5.430;2023-04-01T04:46:22;99342.69;;;9.79;100.00
71774;BME280;59607;52.130;5.430;2023-04-01T04:48:56;99339.06;;;9.80;100.00
71774;BME280;59607;52.130;5.430;2023-04-01T04:51:22;99343.50;;;9.79;100.00
71774;BME280;59607;52.130;5.430;2023-04-01T04:53:55;99349.53;;;9.80;100.00
71774;BME280;59607;52.130;5.430;2023-04-01T04:56:24;99354.59;;;9.81;100.00
71774;BME280;59607;52.130;5.430;2023-04-01T04:58:52;99359.63;;;9.83;100.00
71774;BME280;59607;52.130;5.430;2023-04-01T05:01:23;99363.66;;;9.85;100.00
71774;BME280;59607;52.130;5.430;2023-04-01T05:03:49;99368.31;;;9.90;100.00
71774;BME280;59607;52.130;5.430;2023-04-01T05:06:16;99368.13;;;9.92;100.00
71774;BME280;59607;52.130;5.430;2023-04-01T05:08:56;99368.94;;;9.92;100.00
71774;BME280;59607;52.130;5.430;2023-04-01T05:11:23;99379.59;;;9.91;100.00
71774;BME280;59607;52.130;5.430;2023-04-01T05:13:49;99381.22;;;9.92;100.00
71774;BME280;59607;52.130;5.430;2023-04-01T05:16:18;99382.03;;;9.92;100.00
71774;BME280;59607;52.130;5.430;2023-04-01T05:18:48;99389.88;;;9.92;100.00
71774;BME280;59607;52.130;5.430;2023-04-01T05:21:19;99388.88;;;9.93;100.00
71774;BME280;59607;52.130;5.430;2023-04-01T05:23:51;99400.97;;;9.94;100.00
71774;BME280;59607;52.130;5.430;2023-04-01T05:26:22;99401.78;;;9.95;100.00
71774;BME280;59607;52.130;5.430;2023-04-01T05:28:48;99404.59;;;9.93;100.00
71774;BME280;59607;52.130;5.430;2023-04-01T05:31:15;99409.22;;;9.91;100.00
71774;BME280;59607;52.130;5.430;2023-04-01T05:33:41;99415.25;;;9.92;100.00
71774;BME280;59607;52.130;5.430;2023-04-01T05:36:14;99413.47;;;9.92;100.00
71774;BME280;59607;52.130;5.430;2023-04-01T05:38:44;99422.50;;;9.90;100.00
71774;BME280;59607;52.130;5.430;2023-04-01T05:41:12;99423.31;;;9.90;100.00
71774;BME280;59607;52.130;5.430;2023-04-01T05:43:49;99439.03;;;9.90;100.00
71774;BME280;59607;52.130;5.430;2023-04-01T05:46:16;99436.41;;;9.90;100.00
71774;BME280;59607;52.130;5.430;2023-04-01T05:48:45;99437.03;;;9.92;100.00
71774;BME280;59607;52.130;5.430;2023-04-01T05:51:14;99439.66;;;9.92;100.00
71774;BME280;59607;52.130;5.430;2023-04-01T05:53:42;99440.25;;;9.94;100.00
71774;BME280;59607;52.130;5.430;2023-04-01T05:56:22;99440.25;;;9.94;100.00
71774;BME280;59607;52.130;5.430;2023-04-01T05:58:55;99449.75;;;9.95;100.00
71774;BME280;59607;52.130;5.430;2023-04-01T06:01:21;99454.78;;;9.97;100.00
71774;BME280;59607;52.130;5.430;2023-04-01T06:03:54;99447.34;;;10.00;100.00
71774;BME280;59607;52.130;5.430;2023-04-01T06:06:27;99455.41;;;10.06;100.00
71774;BME280;59607;52.130;5.430;2023-04-01T06:09:12;99465.13;;;10.05;100.00
71774;BME280;59607;52.130;5.430;2023-04-01T06:17:55;99470.53;;;10.04;100.00
71774;BME280;59607;52.130;5.430;2023-04-01T06:28:52;99490.28;;;10.06;100.00
71774;BME280;59607;52.130;5.430;2023-04-01T06:39:45;99506.63;;;10.08;100.00
71774;BME280;59607;52.130;5.430;2023-04-01T06:47:59;99523.63;;;10.19;100.00
71774;BME280;59607;52.130;5.430;2023-04-01T06:50:48;99532.69;;;10.17;100.00
71774;BME280;59607;52.130;5.430;2023-04-01T06:53:36;99526.44;;;10.18;100.00
71774;BME280;59607;52.130;5.430;2023-04-01T06:56:14;99533.28;;;10.19;100.00
71774;BME280;59607;52.130;5.430;2023-04-01T06:58:53;99532.72;;;10.23;100.00
71774;BME280;59607;52.130;5.430;2023-04-01T07:01:52;99542.81;;;10.27;100.00
71774;BME280;59607;52.130;5.430;2023-04-01T07:04:34;99540.00;;;10.28;100.00
71774;BME280;59607;52.130;5.430;2023-04-01T07:07:13;99547.69;;;10.30;100.00
71774;BME280;59607;52.130;5.430;2023-04-01T07:10:02;99558.38;;;10.35;100.00
71774;BME280;59607;52.130;5.430;2023-04-01T07:12:46;99560.81;;;10.36;100.00
71774;BME280;59607;52.130;5.430;2023-04-01T07:15:23;99559.38;;;10.34;100.00
71774;BME280;59607;52.130;5.430;2023-04-01T07:18:15;99568.72;;;10.43;100.00
71774;BME280;59607;52.130;5.430;2023-04-01T07:20:42;99576.56;;;10.43;100.00
71774;BME280;59607;52.130;5.430;2023-04-01T07:23:29;99573.00;;;10.51;100.00
71774;BME280;59607;52.130;5.430;2023-04-01T07:26:11;99582.50;;;10.52;100.00
71774;BME280;59607;52.130;5.430;2023-04-01T07:28:41;99589.97;;;10.55;100.00
71774;BME280;59607;52.130;5.430;2023-04-01T07:31:13;99589.56;;;10.52;100.00
71774;BME280;59607;52.130;5.430;2023-04-01T07:34:13;99593.19;;;10.51;100.00
71774;BME280;59607;52.130;5.430;2023-04-01T07:37:15;99591.75;;;10.48;100.00
71774;BME280;59607;52.130;5.430;2023-04-01T07:45:47;99613.38;;;10.57;100.00
71774;BME280;59607;52.130;5.430;2023-04-01T07:51:29;99622.47;;;10.61;100.00
71774;BME280;59607;52.130;5.430;2023-04-01T07:54:18;99625.69;;;10.56;100.00
71774;BME280;59607;52.130;5.430;2023-04-01T07:57:00;99628.72;;;10.60;100.00
71774;BME280;59607;52.130;5.430;2023-04-01T08:00:20;99635.97;;;10.58;100.00
71774;BME280;59607;52.130;5.430;2023-04-01T08:05:31;99642.47;;;10.62;100.00
71774;BME280;59607;52.130;5.430;2023-04-01T08:08:20;99657.19;;;10.63;100.00
71774;BME280;59607;52.130;5.430;2023-04-01T08:17:05;99660.06;;;10.68;100.00
71774;BME280;59607;52.130;5.430;2023-04-01T08:22:42;99672.16;;;10.69;100.00
71774;BME280;59607;52.130;5.430;2023-04-01T08:25:16;99669.53;;;10.69;100.00
71774;BME280;59607;52.130;5.430;2023-04-01T08:27:47;99679.22;;;10.69;100.00
71774;BME280;59607;52.130;5.430;2023-04-01T08:30:21;99690.47;;;10.63;100.00
71774;BME280;59607;52.130;5.430;2023-04-01T08:33:09;99685.59;;;10.59;100.00
71774;BME280;59607;52.130;5.430;2023-04-01T08:39:17;99694.53;;;10.65;100.00
71774;BME280;59607;52.130;5.430;2023-04-01T08:47:42;99713.97;;;10.78;100.00
71774;BME280;59607;52.130;5.430;2023-04-01T08:53:58;99720.69;;;10.87;100.00
71774;BME280;59607;52.130;5.430;2023-04-01T08:57:00;99723.16;;;10.95;100.00
71774;BME280;59607;52.130;5.430;2023-04-01T09:11:22;99740.97;;;11.07;100.00
71774;BME280;59607;52.130;5.430;2023-04-01T09:40:45;99775.78;;;11.58;100.00
71774;BME280;59607;52.130;5.430;2023-04-01T09:43:28;99775.78;;;11.65;100.00
71774;BME280;59607;52.130;5.430;2023-04-01T10:08:33;99798.00;;;13.13;100.00
71774;BME280;59607;52.130;5.430;2023-04-01T10:11:45;99802.84;;;13.36;100.00
71774;BME280;59607;52.130;5.430;2023-04-01T10:20:54;99809.50;;;13.39;100.00
71774;BME280;59607;52.130;5.430;2023-04-01T10:23:35;99808.94;;;13.30;100.00
71774;BME280;59607;52.130;5.430;2023-04-01T10:26:29;99822.72;;;13.18;100.00
71774;BME280;59607;52.130;5.430;2023-04-01T10:38:19;99822.75;;;12.71;100.00
71774;BME280;59607;52.130;5.430;2023-04-01T10:41:11;99829.81;;;12.64;100.00
71774;BME280;59607;52.130;5.430;2023-04-01T10:47:37;99842.19;;;12.83;100.00
71774;BME280;59607;52.130;5.430;2023-04-01T10:59:19;99843.16;;;13.30;100.00
71774;BME280;59607;52.130;5.430;2023-04-01T11:31:33;99883.81;;;12.46;100.00
71774;BME280;59607;52.130;5.430;2023-04-01T11:34:31;99883.22;;;12.57;100.00
71774;BME280;59607;52.130;5.430;2023-04-01T11:40:14;99891.75;;;12.80;100.00
71774;BME280;59607;52.130;5.430;2023-04-01T11:43:15;99904.13;;;12.79;100.00
71774;BME280;59607;52.130;5.430;2023-04-01T12:03:50;99930.34;;;12.52;100.00
71774;BME280;59607;52.130;5.430;2023-04-01T12:06:46;99932.22;;;12.72;100.00
71774;BME280;59607;52.130;5.430;2023-04-01T12:12:40;99944.97;;;12.68;100.00
71774;BME280;59607;52.130;5.430;2023-04-01T12:15:33;99954.31;;;12.78;100.00
71774;BME280;59607;52.130;5.430;2023-04-01T12:18:24;99950.88;;;12.77;100.00
71774;BME280;59607;52.130;5.430;2023-04-01T12:21:03;99951.50;;;12.79;100.00
71774;BME280;59607;52.130;5.430;2023-04-01T12:29:53;99960.53;;;12.56;100.00
71774;BME280;59607;52.130;5.430;2023-04-01T12:44:21;99977.44;;;13.03;100.00
71774;BME280;59607;52.130;5.430;2023-04-01T12:55:35;99979.25;;;12.95;100.00
71774;BME280;59607;52.130;5.430;2023-04-01T13:04:27;99993.81;;;12.85;100.00
71774;BME280;59607;52.130;5.430;2023-04-01T13:10:40;100000.09;;;12.90;100.00
71774;BME280;59607;52.130;5.430;2023-04-01T13:13:00;100008.59;;;12.86;100.00
71774;BME280;59607;52.130;5.430;2023-04-01T13:16:00;100015.03;;;12.76;100.00
71774;BME280;59607;52.130;5.430;2023-04-01T13:21:54;100018.75;;;12.46;100.00
71774;BME280;59607;52.130;5.430;2023-04-01T13:24:41;100031.88;;;12.40;100.00
71774;BME280;59607;52.130;5.430;2023-04-01T13:33:20;100042.06;;;12.14;100.00
71774;BME280;59607;52.130;5.430;2023-04-01T13:38:45;100040.00;;;12.09;100.00
71774;BME280;59607;52.130;5.430;2023-04-01T13:41:37;100046.25;;;12.08;100.00
71774;BME280;59607;52.130;5.430;2023-04-01T13:44:16;100053.19;;;12.16;100.00
71774;BME280;59607;52.130;5.430;2023-04-01T13:47:15;100048.16;;;12.21;100.00
71774;BME280;59607;52.130;5.430;2023-04-01T13:50:43;100045.50;;;12.15;100.00
71774;BME280;59607;52.130;5.430;2023-04-01T14:07:55;100082.97;;;11.73;100.00
71774;BME280;59607;52.130;5.430;2023-04-01T14:22:39;100119.31;;;11.10;100.00
71774;BME280;59607;52.130;5.430;2023-04-01T14:33:41;100124.84;;;11.01;100.00
71774;BME280;59607;52.130;5.430;2023-04-01T14:45:39;100157.88;;;10.80;100.00
71774;BME280;59607;52.130;5.430;2023-04-01T14:48:36;100157.25;;;10.78;100.00
71774;BME280;59607;52.130;5.430;2023-04-01T14:51:36;100171.53;;;10.75;100.00
71774;BME280;59607;52.130;5.430;2023-04-01T14:54:15;100172.81;;;10.79;100.00
71774;BME280;59607;52.130;5.430;2023-04-01T14:56:51;100173.25;;;10.83;100.00
71774;BME280;59607;52.130;5.430;2023-04-01T14:59:31;100185.91;;;10.79;100.00
71774;BME280;59607;52.130;5.430;2023-04-01T15:04:58;100193.44;;;10.82;100.00
71774;BME280;59607;52.130;5.430;2023-04-01T15:13:07;100201.75;;;10.86;100.00
71774;BME280;59607;52.130;5.430;2023-04-01T15:19:05;100216.94;;;10.91;100.00
71774;BME280;59607;52.130;5.430;2023-04-01T15:30:21;100230.00;;;10.99;100.00
71774;BME280;59607;52.130;5.430;2023-04-01T15:33:18;100238.22;;;10.96;100.00
71774;BME280;59607;52.130;5.430;2023-04-01T15:36:20;100246.09;;;10.96;100.00
71774;BME280;59607;52.130;5.430;2023-04-01T15:39:17;100249.53;;;10.96;100.00
71774;BME280;59607;52.130;5.430;2023-04-01T15:42:19;100259.94;;;10.90;100.00
71774;BME280;59607;52.130;5.430;2023-04-01T15:51:23;100275.81;;;10.73;100.00
71774;BME280;59607;52.130;5.430;2023-04-01T15:57:27;100295.88;;;10.66;100.00
71774;BME280;59607;52.130;5.430;2023-04-01T16:00:22;100294.13;;;10.58;100.00
71774;BME280;59607;52.130;5.430;2023-04-01T16:03:14;100300.91;;;10.52;100.00
71774;BME280;59607;52.130;5.430;2023-04-01T16:09:07;100314.22;;;10.42;100.00
71774;BME280;59607;52.130;5.430;2023-04-01T16:14:37;100324.22;;;10.39;100.00
71774;BME280;59607;52.130;5.430;2023-04-01T16:20:12;100337.72;;;10.27;100.00
71774;BME280;59607;52.130;5.430;2023-04-01T16:23:33;100348.56;;;10.24;100.00
71774;BME280;59607;52.130;5.430;2023-04-01T16:26:08;100353.31;;;10.20;100.00
71774;BME280;59607;52.130;5.430;2023-04-01T16:28:38;100361.53;;;10.17;100.00
71774;BME280;59607;52.130;5.430;2023-04-01T16:31:16;100364.97;;;10.18;100.00
71774;BME280;59607;52.130;5.430;2023-04-01T16:34:01;100370.75;;;10.13;100.00
71774;BME280;59607;52.130;5.430;2023-04-01T16:37:03;100367.16;;;10.06;100.00
71774;BME280;59607;52.130;5.430;2023-04-01T16:42:49;100384.91;;;9.95;100.00
71774;BME280;59607;52.130;5.430;2023-04-01T16:45:30;100381.63;;;9.93;100.00
71774;BME280;59607;52.130;5.430;2023-04-01T16:51:10;100406.41;;;9.82;100.00
71774;BME280;59607;52.130;5.430;2023-04-01T16:53:43;100411.63;;;9.82;100.00
71774;BME280;59607;52.130;5.430;2023-04-01T16:56:23;100419.66;;;9.81;100.00
71774;BME280;59607;52.130;5.430;2023-04-01T17:07:26;100447.66;;;9.63;100.00
71774;BME280;59607;52.130;5.430;2023-04-01T17:12:55;100459.81;;;9.56;100.00
71774;BME280;59607;52.130;5.430;2023-04-01T17:15:38;100466.38;;;9.52;100.00
71774;BME280;59607;52.130;5.430;2023-04-01T17:23:53;100483.53;;;9.46;100.00
71774;BME280;59607;52.130;5.430;2023-04-01T17:26:37;100496.78;;;9.45;100.00
71774;BME280;59607;52.130;5.430;2023-04-01T17:29:26;100491.72;;;9.43;100.00
71774;BME280;59607;52.130;5.430;2023-04-01T17:32:15;100513.47;;;9.44;100.00
71774;BME280;59607;52.130;5.430;2023-04-01T17:37:56;100522.47;;;9.41;100.00
71774;BME280;59607;52.130;5.430;2023-04-01T17:48:54;100541.13;;;9.38;100.00
71774;BME280;59607;52.130;5.430;2023-04-01T17:57:49;100574.16;;;9.31;100.00
71774;BME280;59607;52.130;5.430;2023-04-01T18:03:45;100584.59;;;9.22;100.00
71774;BME280;59607;52.130;5.430;2023-04-01T18:06:36;100589.34;;;9.19;100.00
71774;BME280;59607;52.130;5.430;2023-04-01T18:09:33;100600.13;;;9.16;100.00
71774;BME280;59607;52.130;5.430;2023-04-01T18:12:25;100602.22;;;9.12;100.00
71774;BME280;59607;52.130;5.430;2023-04-01T18:15:19;100600.13;;;9.16;100.00
71774;BME280;59607;52.130;5.430;2023-04-01T18:21:17;100627.59;;;9.11;100.00
71774;BME280;59607;52.130;5.430;2023-04-01T18:24:00;100633.63;;;9.12;100.00
71774;BME280;59607;52.130;5.430;2023-04-01T18:26:35;100647.84;;;9.09;100.00
71774;BME280;59607;52.130;5.430;2023-04-01T18:31:51;100647.66;;;9.03;100.00
71774;BME280;59607;52.130;5.430;2023-04-01T18:37:39;100667.44;;;8.97;100.00
71774;BME280;59607;52.130;5.430;2023-04-01T18:40:35;100669.91;;;8.98;100.00
71774;BME280;59607;52.130;5.430;2023-04-01T18:46:19;100695.16;;;8.89;100.00
71774;BME280;59607;52.130;5.430;2023-04-01T18:49:29;100694.50;;;8.87;100.00
71774;BME280;59607;52.130;5.430;2023-04-01T18:52:16;100720.00;;;8.85;100.00
71774;BME280;59607;52.130;5.430;2023-04-01T19:00:26;100726.34;;;8.83;100.00
71774;BME280;59607;52.130;5.430;2023-04-01T19:05:44;100740.56;;;8.80;100.00
71774;BME280;59607;52.130;5.430;2023-04-01T19:08:32;100737.63;;;8.83;100.00
71774;BME280;59607;52.130;5.430;2023-04-01T19:28:55;100783.38;;;8.79;100.00
71774;BME280;59607;52.130;5.430;2023-04-01T19:31:42;100795.25;;;8.73;100.00
71774;BME280;59607;52.130;5.430;2023-04-01T19:37:32;100807.59;;;8.63;100.00
71774;BME280;59607;52.130;5.430;2023-04-01T19:40:41;100810.66;;;8.58;100.00
71774;BME280;59607;52.130;5.430;2023-04-01T19:43:39;100815.50;;;8.53;100.00
71774;BME280;59607;52.130;5.430;2023-04-01T19:46:28;100825.13;;;8.52;100.00
71774;BME280;59607;52.130;5.430;2023-04-01T19:58:13;100851.28;;;8.52;100.00
71774;BME280;59607;52.130;5.430;2023-04-01T20:00:47;100859.34;;;8.41;100.00
71774;BME280;59607;52.130;5.430;2023-04-01T20:06:17;100879.47;;;8.31;100.00
71774;BME280;59607;52.130;5.430;2023-04-01T20:14:28;100894.00;;;8.15;100.00
71774;BME280;59607;52.130;5.430;2023-04-01T20:17:26;100903.25;;;8.09;100.00
71774;BME280;59607;52.130;5.430;2023-04-01T20:20:08;100902.41;;;8.09;100.00
71774;BME280;59607;52.130;5.430;2023-04-01T20:25:53;100917.81;;;8.12;100.00
71774;BME280;59607;52.130;5.430;2023-04-01T20:28:41;100922.88;;;8.13;100.00
71774;BME280;59607;52.130;5.430;2023-04-01T20:31:31;100935.09;;;8.13;100.00
71774;BME280;59607;52.130;5.430;2023-04-01T20:34:30;100939.00;;;8.09;100.00
71774;BME280;59607;52.130;5.430;2023-04-01T20:37:16;100946.81;;;8.09;100.00
71774;BME280;59607;52.130;5.430;2023-04-01T20:40:17;100942.69;;;8.06;100.00
71774;BME280;59607;52.130;5.430;2023-04-01T20:43:19;100949.44;;;8.09;100.00
71774;BME280;59607;52.130;5.430;2023-04-01T20:57:35;100991.00;;;7.92;100.00
71774;BME280;59607;52.130;5.430;2023-04-01T21:06:30;101006.38;;;7.95;100.00
71774;BME280;59607;52.130;5.430;2023-04-01T21:09:35;101011.06;;;7.92;100.00
71774;BME280;59607;52.130;5.430;2023-04-01T21:15:26;101024.97;;;7.82;100.00
71774;BME280;59607;52.130;5.430;2023-04-01T21:21:17;101036.13;;;7.74;100.00
71774;BME280;59607;52.130;5.430;2023-04-01T21:36:08;101077.06;;;7.34;100.00
71774;BME280;59607;52.130;5.430;2023-04-01T21:45:24;101091.03;;;7.33;100.00
71774;BME280;59607;52.130;5.430;2023-04-01T21:59:42;101121.66;;;7.21;100.00
71774;BME280;59607;52.130;5.430;2023-04-01T22:05:25;101126.03;;;7.21;100.00
71774;BME280;59607;52.130;5.430;2023-04-01T22:08:26;101135.63;;;7.20;100.00
71774;BME280;59607;52.130;5.430;2023-04-01T22:17:08;101144.69;;;7.16;100.00
71774;BME280;59607;52.130;5.430;2023-04-01T22:31:58;101177.84;;;6.94;100.00
71774;BME280;59607;52.130;5.430;2023-04-01T22:34:42;101181.97;;;6.97;100.00
71774;BME280;59607;52.130;5.430;2023-04-01T22:37:44;101181.53;;;6.91;100.00
71774;BME280;59607;52.130;5.430;2023-04-01T22:40:25;101192.53;;;6.95;100.00
71774;BME280;59607;52.130;5.430;2023-04-01T22:43:09;101198.31;;;6.99;100.00
71774;BME280;59607;52.130;5.430;2023-04-01T22:49:11;101206.53;;;6.94;100.00
71774;BME280;59607;52.130;5.430;2023-04-01T22:51:55;101213.19;;;6.87;100.00
71774;BME280;59607;52.130;5.430;2023-04-01T22:54:30;101216.31;;;6.81;100.00
71774;BME280;59607;52.130;5.430;2023-04-01T23:00:05;101224.03;;;6.82;100.00
71774;BME280;59607;52.130;5.430;2023-04-01T23:05:41;101231.84;;;6.82;100.00